Guilderland Center, NY (12085)

4:34 PM EST on December 09, 2019 (GMT -0500)
Mat Farms | | Change Station
Active Advisory: Dense Fog Advisory

Elev 338 ft 42.69 °N, 73.97 °W | Updated 14 seconds ago

Rain
Rain
40.5 °F
Feels Like 36 °F
N
6
Wind Variable Wind from ESE
Gusts 11.0 mph

Today
High -- | Low -- °F
--% Chance of Precip.
Yesterday
High -- | Low -- °F
Precip. -- in
Pressure 29.79 in
Visibility 7.0 miles
Clouds Overcast 500 ft
Windchill 36 °F
Dew Point 40 °F
Humidity 97%
Rainfall 0.06 in
Snow Depth Not available.
7:14 AM 4:22 PM
Waxing Gibbous, 94% visible
METAR KALB 092051Z 18014G20KT 7SM -RA OVC005 07/05 A2978 RMK AO2 SLP087 P0001 60002 T00720050 56044
Pressure 29.79 in
Visibility 7.0 miles
Clouds Overcast 500 ft
Windchill 36 °F
Dew Point 40 °F
Humidity 97%
Rainfall 0.06 in
Snow Depth Not available.
7:14 AM 4:22 PM
Waxing Gibbous, 94% visible
METAR KALB 092051Z 18014G20KT 7SM -RA OVC005 07/05 A2978 RMK AO2 SLP087 P0001 60002 T00720050 56044

Get Your Daily Forecast Email!

Thanks for signing up!

Be on the lookout for a verification email in your inbox.

You'll start receiving severe weather alerts in your inbox..

×

10-Day Weather Forecast

Almanac

Astronomy

Dec. 09, 2019 Rise Set
Actual Time
Civil Twilight
Nautical Twilight
Astronomical Twilight
Moon
Length of Visible Light
Length of Day
Tomorrow will be .
, % of the Moon is Illuminated

Today's Extremes

State Highs State Lows

Community

WunderPhotos

Category 6

Welcome to Category 6. This is the collective home for Weather Underground's featured writeups by Dr. Jeff Masters (right), Bob Henson (left), Chris Burt, and other regular contributors.

Nearby

Air Quality

  Air Quality AQ Index Pollutant
Not available.

Snow Depth

Station Depth Elevation

Earthquake Activity

City Distance Mag. Time & Date
Minimum magnitude displayed is 2.5.

Coastal Water Temperatures

Place Temperature

Stations

Nearby Weather Stations

Station Location Temp. Windchill Dew Point Humidity Wind Precip. Elev Updated Type
                   

Watches & Warnings

Dense Fog Advisory
Issued: 2:23 PM EST Dec. 9, 2019 – National Weather Service

... Dense fog advisory in effect until 1 am EST Tuesday...

* what... visibility one quarter mile or less in dense fog.

* Where... portions of southern Vermont, northwestern Connecticut,
eastern New York except for the southwest Adirondacks, and
western Massachusetts.

* When... until 1 am EST Tuesday.

* Impacts... hazardous driving conditions due to low visibility.

* Additional details... motorists are urged to use extreme caution
during the afternoon commute and tonight as dense fog has
reduced visibility. Give yourself extra time to get to your
destination and drive carefully.

Precautionary/preparedness actions...

If driving, slow down, use your headlights, and leave plenty of
distance ahead of you.